Time;durP1;ratioP1;P1;durP2;ratioP2;P2;SDS_P1;SDS_P2;PMS_P1;PMS_P2;Temp;Humidity;BMP_temperature;BMP_pressure;BME280_temperature;BME280_humidity;BME280_pressure;Samples;Min_cycle;Max_cycle;Signal;HPM_P1;HPM_P2
2022/10/29 00:01:20;;;;;;;17.13;3.92;;;12.70;99.90;;;;;;4917628;29;20044;-86
2022/10/29 00:03:47;;;;;;;22.33;3.70;;;12.70;99.90;;;;;;4922995;29;20111;-86
2022/10/29 00:06:13;;;;;;;16.90;2.97;;;12.80;99.90;;;;;;4916002;29;20487;-86
2022/10/29 00:08:40;;;;;;;8.40;2.95;;;12.70;99.90;;;;;;4927283;29;20380;-86
2022/10/29 00:11:18;;;;;;;16.35;3.55;;;12.60;99.90;;;;;;4893112;29;20043;-88
2022/10/29 00:13:45;;;;;;;14.88;3.75;;;13.50;99.90;;;;;;4930169;29;20511;-86
2022/10/29 00:16:19;;;;;;;12.43;2.75;;;12.60;99.90;;;;;;4928964;29;20047;-87
2022/10/29 00:18:45;;;;;;;11.43;2.65;;;12.60;99.90;;;;;;4916330;29;20043;-87
2022/10/29 00:21:13;;;;;;;17.20;2.60;;;12.60;99.90;;;;;;4929885;29;20284;-87
2022/10/29 00:23:39;;;;;;;8.98;3.30;;;12.50;99.90;;;;;;4931831;29;20062;-87
2022/10/29 00:26:06;;;;;;;10.80;2.90;;;12.60;99.90;;;;;;4931246;29;20126;-87
2022/10/29 00:28:31;;;;;;;10.32;2.15;;;12.50;99.90;;;;;;4912972;29;20052;-86
2022/10/29 00:31:04;;;;;;;12.25;2.00;;;12.90;99.90;;;;;;4902063;29;20079;-86
2022/10/29 00:33:31;;;;;;;9.65;2.40;;;12.40;99.90;;;;;;4929521;28;20109;-86
2022/10/29 00:36:02;;;;;;;12.95;2.70;;;12.40;99.90;;;;;;4913860;29;20132;-86
2022/10/29 00:38:29;;;;;;;48.28;4.40;;;12.30;99.90;;;;;;4914169;29;20495;-87
2022/10/29 00:40:55;;;;;;;13.82;3.05;;;12.20;99.90;;;;;;4900181;29;20035;-87
2022/10/29 00:43:23;;;;;;;16.05;2.80;;;12.50;99.90;;;;;;4914299;29;20051;-88
2022/10/29 00:45:58;;;;;;;7.15;1.40;;;12.20;99.90;;;;;;4924144;29;20043;-86
2022/10/29 00:48:26;;;;;;;12.13;2.13;;;12.20;99.90;;;;;;4910493;29;20067;-86
2022/10/29 00:50:52;;;;;;;14.95;2.92;;;12.10;99.90;;;;;;4931543;29;20122;-86
2022/10/29 00:53:24;;;;;;;7.90;2.60;;;12.10;99.90;;;;;;4914324;29;20046;-86
2022/10/29 00:55:49;;;;;;;9.98;3.10;;;12.00;99.90;;;;;;4912908;29;20517;-88
2022/10/29 00:58:15;;;;;;;7.75;2.20;;;12.00;99.90;;;;;;4928794;29;20044;-86
2022/10/29 01:00:43;;;;;;;12.02;2.33;;;12.00;99.90;;;;;;4913506;29;20042;-87
2022/10/29 01:03:09;;;;;;;8.88;2.05;;;11.90;99.90;;;;;;4927028;29;20071;-87
2022/10/29 01:05:35;;;;;;;7.85;1.90;;;11.90;99.90;;;;;;4915311;29;20052;-87
2022/10/29 01:08:02;;;;;;;10.90;1.98;;;12.10;99.90;;;;;;4928369;29;20134;-87
2022/10/29 01:10:43;;;;;;;7.65;1.60;;;11.80;99.90;;;;;;4926541;29;20036;-86
2022/10/29 01:13:09;;;;;;;8.98;1.75;;;11.80;99.90;;;;;;4908156;28;20393;-86
2022/10/29 01:15:41;;;;;;;5.30;1.58;;;11.70;99.90;;;;;;4920294;29;20051;-86
2022/10/29 01:18:13;;;;;;;7.57;1.40;;;11.70;99.90;;;;;;4912411;29;20043;-87
2022/10/29 01:21:08;;;;;;;12.00;2.15;;;11.60;99.90;;;;;;4929694;29;20039;-86
2022/10/29 01:24:02;;;;;;;10.30;1.73;;;11.60;99.90;;;;;;4931604;29;20524;-87
2022/10/29 01:26:57;;;;;;;5.70;1.85;;;11.60;99.90;;;;;;4918446;29;20864;-86
2022/10/29 01:29:46;;;;;;;12.55;3.00;;;11.50;99.90;;;;;;4901519;29;20050;-86
2022/10/29 01:32:15;;;;;;;68.22;3.28;;;11.40;99.90;;;;;;4912185;29;20047;-87
2022/10/29 01:35:02;;;;;;;49.63;2.33;;;11.40;99.90;;;;;;4933906;29;20048;-87
2022/10/29 01:37:31;;;;;;;;;;;11.40;99.90;;;;;;4922335;29;20058;-87
2022/10/29 01:40:24;;;;;;;2.70;1.45;;;11.50;99.90;;;;;;4917891;29;19918;-87
2022/10/29 01:43:23;;;;;;;8.88;1.30;;;11.50;99.90;;;;;;4909742;29;20062;-87
2022/10/29 01:45:57;;;;;;;7.43;1.33;;;11.50;99.90;;;;;;4915187;29;20510;-87
2022/10/29 01:48:29;;;;;;;8.18;1.73;;;11.50;99.90;;;;;;4928942;29;20577;-86
2022/10/29 01:50:59;;;;;;;94.30;3.35;;;11.50;99.90;;;;;;4908081;29;20032;-86
2022/10/29 01:53:27;;;;;;;18.38;1.35;;;11.40;99.90;;;;;;4925673;29;20044;-87
2022/10/29 01:55:52;;;;;;;5.40;1.40;;;11.40;99.90;;;;;;4911413;29;20047;-86
2022/10/29 01:58:18;;;;;;;9.15;1.85;;;11.40;99.90;;;;;;4950425;28;20066;-87
2022/10/29 02:01:33;;;;;;;9.63;1.20;;;11.30;99.90;;;;;;4941576;28;20071;-89
2022/10/29 02:04:24;;;;;;;5.93;0.90;;;11.30;99.90;;;;;;4908624;29;20063;-86
2022/10/29 02:07:03;;;;;;;7.47;1.60;;;11.80;99.90;;;;;;4948712;28;20035;-86
2022/10/29 02:09:50;;;;;;;6.78;0.60;;;11.20;99.90;;;;;;4914692;29;20562;-87
2022/10/29 02:12:26;;;;;;;11.05;0.85;;;11.00;99.90;;;;;;4924806;29;20122;-86
2022/10/29 02:15:03;;;;;;;250.82;7.38;;;10.80;99.90;;;;;;4917367;29;20048;-87
2022/10/29 02:17:31;;;;;;;90.75;3.90;;;10.80;99.90;;;;;;4917159;29;20031;-86
2022/10/29 02:19:57;;;;;;;151.65;5.15;;;10.80;99.90;;;;;;4914913;29;20042;-87
2022/10/29 02:22:23;;;;;;;21.65;2.67;;;10.80;99.90;;;;;;4913475;29;20118;-87
2022/10/29 02:24:48;;;;;;;34.97;2.83;;;10.90;99.90;;;;;;4917951;29;20035;-86
2022/10/29 02:27:14;;;;;;;123.85;4.80;;;10.90;99.90;;;;;;4917094;29;20116;-86
2022/10/29 02:29:39;;;;;;;28.10;2.72;;;10.90;99.90;;;;;;4915171;29;20127;-87
2022/10/29 02:32:05;;;;;;;33.28;3.08;;;10.90;99.90;;;;;;4925260;29;20075;-89
2022/10/29 02:34:33;;;;;;;12.20;2.65;;;11.00;99.90;;;;;;4927663;29;20052;-87
2022/10/29 02:36:59;;;;;;;6.15;1.77;;;10.90;99.90;;;;;;4904603;29;20075;-86
2022/10/29 02:39:24;;;;;;;11.80;1.77;;;11.40;99.90;;;;;;4910648;29;20072;-86
2022/10/29 02:41:50;;;;;;;22.85;1.95;;;10.90;99.90;;;;;;4935341;29;20040;-86
2022/10/29 02:44:15;;;;;;;12.25;2.00;;;11.60;99.90;;;;;;4931865;29;20065;-88
2022/10/29 02:46:43;;;;;;;7.03;1.98;;;10.70;99.90;;;;;;4916274;29;20047;-86
2022/10/29 02:49:09;;;;;;;8.15;1.52;;;10.70;99.90;;;;;;4930442;29;20047;-86
2022/10/29 02:51:34;;;;;;;33.25;3.00;;;10.70;99.90;;;;;;4914686;29;20035;-86
2022/10/29 02:54:00;;;;;;;47.50;3.10;;;11.00;99.90;;;;;;4914694;29;20410;-86
2022/10/29 02:56:25;;;;;;;106.65;5.47;;;10.60;99.90;;;;;;4948604;28;20054;-86
2022/10/29 02:58:52;;;;;;;14.75;3.17;;;10.90;99.90;;;;;;4920231;29;20115;-86
2022/10/29 03:01:19;;;;;;;10.50;3.10;;;10.60;99.90;;;;;;4914954;29;20028;-88
2022/10/29 03:03:45;;;;;;;7.82;3.10;;;10.60;99.90;;;;;;4922852;29;20036;-86
2022/10/29 03:06:16;;;;;;;6.75;3.25;;;10.60;99.90;;;;;;4929581;29;20054;-87
2022/10/29 03:08:42;;;;;;;39.67;5.20;;;10.60;99.90;;;;;;4924290;29;20048;-86
2022/10/29 03:11:08;;;;;;;37.92;4.47;;;10.60;99.90;;;;;;4913201;29;20050;-86
2022/10/29 03:13:34;;;;;;;38.90;5.15;;;10.70;99.90;;;;;;4914665;29;20744;-86
2022/10/29 03:15:59;;;;;;;21.80;4.15;;;10.70;99.90;;;;;;4899731;29;20035;-87
2022/10/29 03:18:25;;;;;;;54.72;6.97;;;10.70;99.90;;;;;;4918626;29;20098;-87
2022/10/29 03:20:50;;;;;;;17.38;5.10;;;10.80;99.90;;;;;;4920403;29;20779;-88
2022/10/29 03:23:16;;;;;;;17.17;5.68;;;10.90;99.90;;;;;;4930309;29;20039;-86
2022/10/29 03:25:42;;;;;;;17.23;4.63;;;10.90;99.90;;;;;;4915003;29;20047;-88
2022/10/29 03:28:07;;;;;;;11.13;5.10;;;10.90;99.90;;;;;;4928516;29;20039;-86
2022/10/29 03:30:36;;;;;;;16.55;5.40;;;11.00;99.90;;;;;;4930036;29;20133;-86
2022/10/29 03:33:02;;;;;;;13.32;5.97;;;11.00;99.90;;;;;;4915568;29;20752;-86
2022/10/29 03:35:27;;;;;;;81.20;10.85;;;11.00;99.90;;;;;;4915208;29;20043;-86
2022/10/29 03:37:53;;;;;;;30.88;7.43;;;11.10;99.90;;;;;;4903199;29;20737;-86
2022/10/29 03:40:19;;;;;;;58.60;8.23;;;11.20;99.90;;;;;;4918475;29;20047;-89
2022/10/29 03:42:45;;;;;;;58.75;8.38;;;11.50;99.90;;;;;;4916352;29;20048;-86
2022/10/29 03:45:13;;;;;;;22.40;7.88;;;11.20;99.90;;;;;;4925120;29;20422;-86
2022/10/29 03:47:39;;;;;;;37.42;8.50;;;11.30;99.90;;;;;;4928460;29;20098;-87
2022/10/29 03:50:05;;;;;;;37.35;9.02;;;11.30;99.90;;;;;;4928744;29;20051;-86
2022/10/29 03:52:31;;;;;;;31.45;8.73;;;11.40;99.90;;;;;;4930350;29;20031;-86
2022/10/29 03:54:56;;;;;;;30.52;10.13;;;11.50;99.90;;;;;;4887926;29;20462;-87
2022/10/29 03:57:22;;;;;;;19.35;9.07;;;11.50;99.90;;;;;;4909814;29;20031;-86
2022/10/29 03:59:47;;;;;;;14.75;9.35;;;11.70;99.90;;;;;;4928232;29;20074;-87
2022/10/29 04:02:13;;;;;;;18.83;10.85;;;11.60;99.90;;;;;;4914825;29;20039;-86
2022/10/29 04:04:39;;;;;;;20.08;9.82;;;11.60;99.90;;;;;;4929676;29;20048;-87
2022/10/29 04:07:04;;;;;;;25.10;10.00;;;12.50;99.90;;;;;;4917110;29;20035;-86
2022/10/29 04:09:30;;;;;;;31.35;12.55;;;11.80;99.90;;;;;;4933217;29;20422;-87
2022/10/29 04:11:56;;;;;;;28.08;11.38;;;12.00;99.90;;;;;;4916521;29;20065;-87
2022/10/29 04:14:21;;;;;;;35.53;11.82;;;11.80;99.90;;;;;;4920314;29;20039;-86
2022/10/29 04:16:47;;;;;;;21.40;11.27;;;11.90;99.90;;;;;;4889559;29;20531;-86
2022/10/29 04:19:12;;;;;;;23.85;11.70;;;11.90;99.90;;;;;;4902652;29;20051;-86
2022/10/29 04:21:38;;;;;;;29.65;11.25;;;11.90;99.90;;;;;;4903390;29;20197;-86
2022/10/29 04:24:04;;;;;;;26.83;10.20;;;11.90;99.90;;;;;;4915641;29;20053;-86
2022/10/29 04:26:29;;;;;;;24.92;9.73;;;11.90;99.90;;;;;;4911513;29;20047;-87
2022/10/29 04:28:55;;;;;;;26.60;9.82;;;12.20;99.90;;;;;;4928355;28;20040;-86
2022/10/29 04:31:21;;;;;;;39.85;11.77;;;12.00;99.90;;;;;;4914122;29;20069;-87
2022/10/29 04:33:46;;;;;;;26.23;10.82;;;12.00;99.90;;;;;;4922398;29;20138;-86
2022/10/29 04:36:12;;;;;;;43.92;13.35;;;12.00;99.90;;;;;;4927975;29;20048;-87
2022/10/29 04:38:38;;;;;;;49.15;13.18;;;12.50;99.90;;;;;;4928381;29;20110;-86
2022/10/29 04:41:03;;;;;;;43.97;12.35;;;12.10;99.90;;;;;;4916160;29;20040;-86
2022/10/29 04:43:30;;;;;;;41.60;12.98;;;12.10;99.90;;;;;;4911111;28;20079;-87
2022/10/29 04:45:57;;;;;;;38.42;13.48;;;12.20;99.90;;;;;;4922326;29;20052;-87
2022/10/29 04:48:25;;;;;;;38.50;13.27;;;12.20;99.90;;;;;;4928367;29;20051;-86
2022/10/29 04:50:50;;;;;;;39.92;13.52;;;12.40;99.90;;;;;;4928422;29;20107;-90
2022/10/29 04:53:17;;;;;;;47.83;15.00;;;12.20;99.90;;;;;;4921348;29;20764;-86
2022/10/29 04:55:43;;;;;;;43.58;13.23;;;12.20;99.90;;;;;;4911766;29;20111;-87
2022/10/29 04:58:14;;;;;;;40.80;14.20;;;12.30;99.90;;;;;;4915400;29;20131;-86
2022/10/29 05:00:40;;;;;;;44.03;14.30;;;13.00;99.90;;;;;;4913972;29;20043;-86
2022/10/29 05:03:06;;;;;;;31.63;12.90;;;12.40;99.90;;;;;;4923655;29;20040;-86
2022/10/29 05:05:32;;;;;;;45.30;15.07;;;12.40;99.90;;;;;;4921207;29;20040;-86
2022/10/29 05:08:03;;;;;;;41.20;15.77;;;12.40;99.90;;;;;;4906494;29;20046;-87
2022/10/29 05:10:30;;;;;;;39.47;13.65;;;12.60;99.90;;;;;;4932618;29;20035;-87
2022/10/29 05:13:01;;;;;;;41.10;14.18;;;12.40;99.90;;;;;;4943905;29;20043;-87
2022/10/29 05:15:28;;;;;;;33.33;14.88;;;12.60;99.90;;;;;;4918160;29;20773;-87
2022/10/29 05:17:54;;;;;;;42.05;16.15;;;12.60;99.90;;;;;;4931840;29;20044;-87
2022/10/29 05:20:20;;;;;;;59.10;18.65;;;12.40;99.90;;;;;;4917714;29;20031;-86
2022/10/29 05:22:46;;;;;;;49.63;16.63;;;12.40;99.90;;;;;;4914887;29;20763;-87
2022/10/29 05:25:11;;;;;;;41.90;16.55;;;12.60;99.90;;;;;;4918932;29;20035;-87
2022/10/29 05:27:37;;;;;;;33.17;14.63;;;12.40;99.90;;;;;;4947623;28;20597;-86
2022/10/29 05:30:03;;;;;;;50.90;19.48;;;12.90;99.90;;;;;;4915477;29;20069;-86
2022/10/29 05:32:29;;;;;;;41.28;17.35;;;12.50;99.90;;;;;;4915355;29;20069;-86
2022/10/29 05:34:55;;;;;;;34.70;15.57;;;12.50;99.90;;;;;;4924983;29;20619;-86
2022/10/29 05:37:20;;;;;;;48.25;19.10;;;12.50;99.90;;;;;;4931408;29;20051;-85
2022/10/29 05:39:46;;;;;;;36.20;15.77;;;12.50;99.90;;;;;;4931152;29;20118;-88
2022/10/29 05:42:11;;;;;;;29.77;16.20;;;12.80;99.90;;;;;;4931207;29;20039;-85
2022/10/29 05:44:37;;;;;;;42.08;16.95;;;12.60;99.90;;;;;;4931387;29;20522;-86
2022/10/29 05:47:04;;;;;;;33.42;16.60;;;12.60;99.90;;;;;;4933120;29;20040;-87
2022/10/29 05:49:30;;;;;;;33.95;17.52;;;12.50;99.90;;;;;;4918564;29;20553;-86
2022/10/29 05:51:55;;;;;;;31.73;17.10;;;12.60;99.90;;;;;;4930818;29;20127;-86
2022/10/29 05:54:21;;;;;;;48.30;19.33;;;12.60;99.90;;;;;;4935993;29;20046;-86
2022/10/29 05:56:47;;;;;;;47.30;18.70;;;12.80;99.90;;;;;;4923127;29;20064;-87
2022/10/29 05:59:12;;;;;;;46.55;17.45;;;12.60;99.90;;;;;;4917150;29;20090;-87
2022/10/29 06:01:38;;;;;;;50.00;17.70;;;12.60;99.90;;;;;;4929333;29;20118;-88
2022/10/29 06:04:04;;;;;;;35.67;17.50;;;12.60;99.90;;;;;;4918441;29;20483;-89
2022/10/29 06:06:30;;;;;;;41.10;16.40;;;12.80;99.90;;;;;;4932227;29;20047;-88
2022/10/29 06:08:55;;;;;;;28.60;15.57;;;12.50;99.90;;;;;;4936911;29;20394;-89
2022/10/29 06:11:21;;;;;;;64.47;18.40;;;12.50;99.90;;;;;;4918958;29;20047;-88
2022/10/29 06:13:47;;;;;;;36.28;15.38;;;12.50;99.90;;;;;;4905376;29;20044;-91
2022/10/29 06:16:15;;;;;;;41.17;16.52;;;12.50;99.90;;;;;;4919085;29;20036;-86
2022/10/29 06:18:45;;;;;;;46.88;18.55;;;12.50;99.90;;;;;;4933068;29;20579;-87
2022/10/29 06:21:10;;;;;;;85.38;18.25;;;12.50;99.90;;;;;;4901741;29;20123;-87
2022/10/29 06:23:36;;;;;;;73.57;20.13;;;12.50;99.90;;;;;;4916838;29;20122;-86
2022/10/29 06:26:02;;;;;;;89.80;20.60;;;12.50;99.90;;;;;;4921948;29;20442;-87
2022/10/29 06:28:28;;;;;;;55.42;19.05;;;12.50;99.90;;;;;;4913553;29;22169;-89
2022/10/29 06:30:53;;;;;;;217.48;25.52;;;12.60;99.90;;;;;;4918593;29;20031;-84
2022/10/29 06:33:20;;;;;;;141.30;20.25;;;12.50;99.90;;;;;;4934150;29;20052;-87
2022/10/29 06:35:46;;;;;;;64.85;18.08;;;12.40;99.90;;;;;;4925517;29;20131;-86
2022/10/29 06:38:12;;;;;;;93.43;20.98;;;12.50;99.90;;;;;;4914324;29;20039;-83
2022/10/29 06:40:38;;;;;;;140.38;21.83;;;12.50;99.90;;;;;;4927619;29;20039;-87
2022/10/29 06:43:06;;;;;;;161.13;21.42;;;12.40;99.90;;;;;;4924533;29;20107;-86
2022/10/29 06:45:33;;;;;;;76.38;18.40;;;12.40;99.90;;;;;;4917598;29;20048;-87
2022/10/29 06:51:51;;;;;;;119.40;18.27;;;12.50;99.90;;;;;;4931566;29;20513;-91
2022/10/29 06:54:20;;;;;;;58.25;19.42;;;12.60;99.90;;;;;;4914626;29;20043;-87
2022/10/29 06:56:45;;;;;;;52.92;18.50;;;12.50;99.90;;;;;;4929836;29;20776;-86
2022/10/29 06:59:11;;;;;;;90.72;19.65;;;12.50;99.90;;;;;;4927956;29;20040;-87
2022/10/29 07:01:37;;;;;;;32.80;18.30;;;12.50;99.90;;;;;;4912052;29;20055;-88
2022/10/29 07:05:16;;;;;;;90.13;22.80;;;12.60;99.90;;;;;;4920963;29;20099;-88
2022/10/29 07:07:41;;;;;;;53.05;16.90;;;12.50;99.90;;;;;;4875875;29;20213;-87
2022/10/29 07:10:07;;;;;;;72.32;18.70;;;12.60;99.90;;;;;;4916370;29;20051;-85
2022/10/29 07:12:42;;;;;;;62.25;19.98;;;12.60;99.90;;;;;;4917354;29;20098;-85
2022/10/29 07:15:08;;;;;;;58.80;21.23;;;12.60;99.90;;;;;;4928186;29;21637;-85
2022/10/29 07:17:34;;;;;;;55.38;20.27;;;12.60;99.90;;;;;;4914710;29;20055;-86
2022/10/29 07:20:02;;;;;;;32.65;19.55;;;12.60;99.90;;;;;;4913604;29;20035;-88
2022/10/29 07:22:31;;;;;;;32.45;18.25;;;12.60;99.90;;;;;;4912213;29;20490;-88
2022/10/29 07:25:05;;;;;;;46.47;19.15;;;12.60;99.90;;;;;;4921218;29;20062;-87
2022/10/29 07:27:30;;;;;;;45.53;19.80;;;12.60;99.90;;;;;;4916160;29;20470;-88
2022/10/29 07:29:59;;;;;;;41.25;17.33;;;12.80;99.90;;;;;;4916536;29;20050;-87
2022/10/29 07:33:06;;;;;;;39.13;17.35;;;12.60;99.90;;;;;;4911897;29;20039;-89
2022/10/29 07:35:58;;;;;;;36.38;19.20;;;12.60;99.90;;;;;;4884779;29;20055;-88
2022/10/29 07:38:41;;;;;;;31.52;19.08;;;12.60;99.90;;;;;;4886279;29;20095;-88
2022/10/29 07:41:11;;;;;;;25.67;16.27;;;12.60;99.90;;;;;;4843086;29;20106;-88
2022/10/29 15:48:36;;;;;;;22.00;9.55;;;17.80;99.90;;;;;;4922320;29;20087;-83
2022/10/29 15:51:02;;;;;;;18.42;9.18;;;17.70;99.90;;;;;;4918718;29;20054;-83
2022/10/29 15:53:31;;;;;;;16.75;8.88;;;17.70;99.90;;;;;;4924624;29;20044;-84
2022/10/29 15:55:57;;;;;;;15.77;7.47;;;17.60;99.90;;;;;;4914809;29;20090;-85
2022/10/29 15:58:22;;;;;;;20.75;9.68;;;17.50;99.90;;;;;;4908503;29;20044;-83
2022/10/29 16:00:49;;;;;;;21.80;8.27;;;17.50;99.90;;;;;;4934078;29;20061;-86
2022/10/29 16:03:26;;;;;;;23.58;8.82;;;17.40;99.90;;;;;;4928129;29;20047;-84
2022/10/29 16:05:59;;;;;;;16.73;7.78;;;17.30;99.90;;;;;;4929171;29;22833;-84
2022/10/29 16:08:39;;;;;;;14.60;9.55;;;17.30;99.90;;;;;;4913958;29;20091;-83
2022/10/29 16:11:07;;;;;;;19.55;8.43;;;17.60;99.90;;;;;;4917254;29;20040;-84
2022/10/29 16:13:34;;;;;;;23.13;10.20;;;17.20;99.90;;;;;;4946120;29;20055;-83
2022/10/29 16:16:00;;;;;;;16.35;8.73;;;17.20;99.90;;;;;;4918538;29;20051;-84
2022/10/29 16:18:25;;;;;;;21.85;10.00;;;17.10;99.90;;;;;;4911734;29;20699;-83
2022/10/29 16:21:11;;;;;;;18.25;8.63;;;17.10;99.90;;;;;;4918667;29;20534;-83
2022/10/29 16:23:37;;;;;;;;;;;17.40;99.90;;;;;;4913764;28;20035;-83
2022/10/29 16:26:03;;;;;;;;;;;17.10;99.90;;;;;;4922749;29;19926;-83
2022/10/29 16:28:28;;;;;;;13.77;8.00;;;17.00;99.90;;;;;;4915858;29;19919;-84
2022/10/29 16:30:57;;;;;;;14.82;8.20;;;17.00;99.90;;;;;;4927724;29;20062;-84
2022/10/29 16:33:22;;;;;;;15.32;8.15;;;17.00;99.90;;;;;;4925112;29;20046;-84
2022/10/29 16:35:48;;;;;;;15.52;8.52;;;17.00;99.90;;;;;;4911802;29;21019;-83
2022/10/29 16:38:16;;;;;;;15.82;8.63;;;16.90;99.90;;;;;;4924691;29;20050;-83
2022/10/29 16:40:42;;;;;;;13.27;8.82;;;16.90;99.90;;;;;;4909259;29;20044;-83
2022/10/29 16:43:08;;;;;;;17.67;9.02;;;16.90;99.90;;;;;;4915145;29;20043;-82
2022/10/29 16:45:33;;;;;;;18.45;9.32;;;16.90;99.90;;;;;;4922067;29;20494;-83
2022/10/29 16:47:59;;;;;;;20.52;8.48;;;16.90;99.90;;;;;;4913330;29;20051;-83
2022/10/29 16:50:27;;;;;;;21.90;9.77;;;17.30;99.90;;;;;;4913085;29;20044;-84
2022/10/29 16:53:00;;;;;;;19.88;9.10;;;16.90;99.90;;;;;;4932497;29;20054;-83
2022/10/29 16:55:27;;;;;;;21.10;9.77;;;16.90;99.90;;;;;;4913609;29;20137;-84
2022/10/29 16:57:53;;;;;;;19.08;9.90;;;16.90;99.90;;;;;;4914224;29;20044;-84
2022/10/29 17:00:24;;;;;;;15.88;8.43;;;16.90;99.90;;;;;;4919203;29;20131;-83
2022/10/29 17:02:50;;;;;;;17.58;9.50;;;17.00;99.90;;;;;;4930620;29;20585;-83
2022/10/29 17:05:15;;;;;;;18.02;9.13;;;17.00;99.90;;;;;;4910588;29;20036;-84
2022/10/29 17:07:44;;;;;;;18.23;8.80;;;17.10;99.90;;;;;;4934073;29;20060;-82
2022/10/29 17:10:10;;;;;;;19.65;8.70;;;17.00;99.90;;;;;;4913400;29;20500;-83
2022/10/29 17:12:35;;;;;;;15.57;8.88;;;17.00;99.90;;;;;;4929238;29;20134;-83
2022/10/29 17:15:01;;;;;;;16.33;8.45;;;17.00;99.90;;;;;;4917236;29;20071;-83
2022/10/29 17:17:34;;;;;;;18.90;9.90;;;17.00;99.90;;;;;;4930365;29;20435;-83
2022/10/29 17:20:06;;;;;;;16.13;8.77;;;17.00;99.90;;;;;;4921848;29;20039;-83
2022/10/29 17:22:39;;;;;;;21.35;9.45;;;17.00;99.90;;;;;;4931126;29;20044;-83
2022/10/29 17:25:05;;;;;;;18.60;8.68;;;17.00;99.90;;;;;;4932912;29;20047;-82
2022/10/29 17:27:31;;;;;;;19.20;9.57;;;17.00;99.90;;;;;;4933963;29;20036;-83
2022/10/29 17:29:57;;;;;;;22.65;8.40;;;16.90;99.90;;;;;;4922017;29;20056;-82
2022/10/29 17:32:23;;;;;;;18.35;8.40;;;16.80;99.90;;;;;;4948427;28;20032;-83
2022/10/29 17:34:49;;;;;;;20.40;8.88;;;16.90;99.90;;;;;;4919105;29;20046;-83
2022/10/29 17:37:15;;;;;;;21.63;9.48;;;16.80;99.90;;;;;;4919607;29;20035;-83
2022/10/29 17:39:40;;;;;;;23.95;9.65;;;16.80;99.90;;;;;;4916417;29;20044;-82
2022/10/29 17:42:06;;;;;;;22.30;8.80;;;16.80;99.90;;;;;;4927091;29;20486;-83
2022/10/29 17:44:32;;;;;;;19.25;9.13;;;16.80;99.90;;;;;;4922005;29;20562;-84
2022/10/29 17:46:59;;;;;;;14.15;8.40;;;16.70;99.90;;;;;;4941971;28;20066;-82
2022/10/29 17:49:25;;;;;;;13.10;8.43;;;16.70;99.90;;;;;;4930227;29;20043;-83
2022/10/29 17:51:51;;;;;;;24.38;8.75;;;16.70;99.90;;;;;;4914324;29;20067;-84
2022/10/29 17:54:17;;;;;;;17.15;8.50;;;16.70;99.90;;;;;;4940203;29;20040;-83
2022/10/29 17:56:42;;;;;;;18.63;9.75;;;16.70;99.90;;;;;;4918409;29;20049;-83
2022/10/29 17:59:08;;;;;;;22.83;9.75;;;16.60;99.90;;;;;;4920648;29;20043;-83
2022/10/29 18:01:34;;;;;;;19.23;9.68;;;16.60;99.90;;;;;;4931383;29;20032;-83
2022/10/29 18:04:04;;;;;;;21.67;10.52;;;16.60;99.90;;;;;;4931600;29;20586;-83
2022/10/29 18:06:30;;;;;;;14.27;8.10;;;16.50;99.90;;;;;;4926902;29;20050;-83
2022/10/29 18:08:56;;;;;;;24.95;9.68;;;16.40;99.90;;;;;;4909605;29;20047;-83
2022/10/29 18:11:23;;;;;;;17.20;8.82;;;16.40;99.90;;;;;;4933432;29;20422;-85
2022/10/29 18:13:49;;;;;;;19.65;10.45;;;16.40;99.90;;;;;;4933823;29;20032;-84
2022/10/29 18:16:18;;;;;;;14.60;8.85;;;16.40;99.90;;;;;;4919165;29;20035;-83
2022/10/29 18:18:44;;;;;;;18.98;9.63;;;16.30;99.90;;;;;;4918751;29;20043;-84
2022/10/29 18:21:16;;;;;;;16.48;8.48;;;16.30;99.90;;;;;;4933460;29;20071;-83
2022/10/29 18:23:45;;;;;;;22.60;10.45;;;16.30;99.90;;;;;;4925582;29;20415;-83
2022/10/29 18:26:23;;;;;;;18.38;9.85;;;16.30;99.90;;;;;;4913110;29;20578;-83
2022/10/29 18:28:49;;;;;;;15.35;8.88;;;16.30;99.90;;;;;;4908646;29;20059;-84
2022/10/29 18:31:16;;;;;;;24.33;9.73;;;16.20;99.90;;;;;;4930006;29;20038;-84
2022/10/29 18:33:41;;;;;;;20.05;9.25;;;16.20;99.90;;;;;;4932661;28;20044;-83
2022/10/29 18:36:10;;;;;;;17.33;8.98;;;16.20;99.90;;;;;;4931254;29;20042;-82
2022/10/29 18:38:37;;;;;;;18.83;8.73;;;16.10;99.90;;;;;;4927939;29;20399;-83
2022/10/29 18:41:03;;;;;;;20.30;10.07;;;16.10;99.90;;;;;;4917594;29;20160;-87
2022/10/29 18:43:31;;;;;;;20.27;9.07;;;16.00;99.90;;;;;;4916862;29;20111;-86
2022/10/29 18:46:26;;;;;;;24.42;9.27;;;16.00;99.90;;;;;;4932230;29;20036;-85
2022/10/29 18:49:04;;;;;;;15.95;8.82;;;16.00;99.90;;;;;;4918092;29;20414;-85
2022/10/29 18:51:31;;;;;;;19.65;9.23;;;16.00;99.90;;;;;;4923840;29;20049;-86
2022/10/29 18:53:57;;;;;;;23.17;9.77;;;16.00;99.90;;;;;;4912552;29;20119;-84
2022/10/29 18:56:32;;;;;;;16.85;8.95;;;16.00;99.90;;;;;;4911397;29;20143;-86
2022/10/29 18:58:58;;;;;;;18.73;8.63;;;15.90;99.90;;;;;;4930477;29;20067;-85
2022/10/29 19:01:32;;;;;;;18.35;9.18;;;16.00;99.90;;;;;;4931907;29;20843;-87
2022/10/29 19:04:02;;;;;;;16.67;8.48;;;16.00;99.90;;;;;;4915742;29;20491;-86
2022/10/29 19:06:31;;;;;;;22.13;8.52;;;16.00;99.90;;;;;;4928912;29;20059;-84
2022/10/29 19:09:03;;;;;;;18.27;8.52;;;15.90;99.90;;;;;;4901884;29;20047;-86
2022/10/29 19:11:31;;;;;;;24.05;9.18;;;15.90;99.90;;;;;;4931314;29;20043;-86
2022/10/29 19:13:58;;;;;;;19.70;9.15;;;15.90;99.90;;;;;;4917491;29;20043;-85
2022/10/29 19:17:16;;;;;;;15.07;8.27;;;16.00;99.90;;;;;;4919083;29;20078;-85
2022/10/29 19:19:42;;;;;;;17.42;7.50;;;15.90;99.90;;;;;;4930235;29;20749;-84
2022/10/29 19:22:07;;;;;;;18.58;8.63;;;15.90;99.90;;;;;;4919862;29;20036;-85
2022/10/29 19:24:33;;;;;;;18.70;9.20;;;16.40;99.90;;;;;;4952817;28;20043;-85
2022/10/29 19:26:59;;;;;;;15.40;8.77;;;15.80;99.90;;;;;;4927852;29;20058;-85
2022/10/29 19:29:24;;;;;;;18.88;9.27;;;15.90;99.90;;;;;;4908248;29;20048;-84
2022/10/29 19:31:50;;;;;;;16.75;10.25;;;16.00;99.90;;;;;;4893280;29;20048;-85
2022/10/29 19:34:15;;;;;;;20.95;9.18;;;15.70;99.90;;;;;;4922346;29;20518;-85
2022/10/29 19:36:41;;;;;;;17.65;7.93;;;15.80;99.90;;;;;;4925298;29;20059;-84
2022/10/29 19:39:07;;;;;;;13.55;8.48;;;15.70;99.90;;;;;;4913724;29;20775;-84
2022/10/29 19:41:33;;;;;;;17.77;10.02;;;15.60;99.90;;;;;;4920708;29;20049;-85
2022/10/29 19:43:59;;;;;;;20.33;8.13;;;15.60;99.90;;;;;;4921854;29;20119;-85
2022/10/29 19:46:30;;;;;;;20.77;9.27;;;15.60;99.90;;;;;;4912626;29;20055;-85
2022/10/29 19:49:33;;;;;;;23.23;8.95;;;15.80;99.90;;;;;;4912491;29;20035;-85
2022/10/29 19:51:59;;;;;;;14.52;8.32;;;15.40;99.90;;;;;;4901130;29;20194;-85
2022/10/29 19:54:24;;;;;;;14.95;8.25;;;15.40;99.90;;;;;;4909705;29;20122;-85
2022/10/29 19:56:50;;;;;;;21.52;9.77;;;15.40;99.90;;;;;;4917355;29;20058;-85
2022/10/29 19:59:16;;;;;;;19.60;7.97;;;15.30;99.90;;;;;;4941573;28;20131;-85
2022/10/29 20:01:51;;;;;;;16.08;10.10;;;15.30;99.90;;;;;;4923852;29;20047;-84
2022/10/29 20:04:16;;;;;;;17.30;10.63;;;15.10;99.90;;;;;;4902055;29;20039;-85
2022/10/29 20:06:42;;;;;;;18.83;10.57;;;15.10;99.90;;;;;;4907994;29;20123;-86
2022/10/29 20:09:14;;;;;;;17.90;9.18;;;15.10;99.90;;;;;;4925245;29;20043;-85
2022/10/29 20:11:40;;;;;;;23.30;10.32;;;15.10;99.90;;;;;;4910587;29;20047;-85
2022/10/29 20:14:07;;;;;;;26.83;10.70;;;15.00;99.90;;;;;;4906153;29;20051;-85
2022/10/29 20:16:35;;;;;;;20.42;10.23;;;15.40;99.90;;;;;;4920931;29;20051;-84
2022/10/29 20:19:17;;;;;;;21.63;11.30;;;14.90;99.90;;;;;;4928708;29;20126;-84
2022/10/29 20:21:43;;;;;;;17.27;10.68;;;15.00;99.90;;;;;;4896612;29;20131;-85
2022/10/29 20:24:08;;;;;;;18.65;10.80;;;14.90;99.90;;;;;;4914940;29;20143;-84
2022/10/29 20:26:34;;;;;;;18.85;10.27;;;14.80;99.90;;;;;;4914559;29;20040;-85
2022/10/29 20:28:59;;;;;;;21.42;10.20;;;15.30;99.90;;;;;;4911886;29;20043;-84
2022/10/29 20:31:27;;;;;;;20.08;9.77;;;14.70;99.90;;;;;;4936959;28;20091;-84
2022/10/29 20:33:58;;;;;;;20.77;10.15;;;14.70;99.90;;;;;;4913225;28;20142;-84
2022/10/29 20:36:26;;;;;;;16.77;9.90;;;14.60;99.90;;;;;;4927734;29;20087;-85
2022/10/29 20:38:57;;;;;;;16.60;10.70;;;14.60;99.90;;;;;;4915528;29;20459;-84
2022/10/29 20:41:26;;;;;;;22.70;10.45;;;14.60;99.90;;;;;;4924019;29;20032;-85
2022/10/29 20:44:20;;;;;;;20.63;10.27;;;14.60;99.90;;;;;;4914163;29;20491;-84
2022/10/29 20:46:46;;;;;;;25.60;10.93;;;14.60;99.90;;;;;;4913482;29;20490;-84
2022/10/29 20:49:24;;;;;;;22.10;9.77;;;14.90;99.90;;;;;;4911314;29;20052;-84
2022/10/29 20:51:50;;;;;;;11.85;8.38;;;14.50;99.90;;;;;;4915690;29;20032;-85
2022/10/29 20:54:15;;;;;;;26.42;8.90;;;14.40;99.90;;;;;;4912504;29;20043;-84